Time;durP1;ratioP1;P1;durP2;ratioP2;P2;SDS_P1;SDS_P2;PMS_P1;PMS_P2;Temp;Humidity;BMP_temperature;BMP_pressure;BME280_temperature;BME280_humidity;BME280_pressure;Samples;Min_cycle;Max_cycle;Signal;HPM_P1;HPM_P2
2023/12/18 00:00:04;;;;;;;6.20;4.50;;;;;;;;;;82067;276;3031109;-35
2023/12/18 00:02:41;;;;;;;6.40;4.40;;;;;;;;;;83435;280;3028361;-35
2023/12/18 00:05:24;;;;;;;6.00;4.40;;;;;;;;;;82775;277;3027593;-35
2023/12/18 00:08:06;;;;;;;6.40;4.30;;;;;;;;;;82049;276;3030766;-35
2023/12/18 00:10:43;;;;;;;6.50;4.50;;;;;;;;;;83456;280;3031452;-35
2023/12/18 00:13:20;;;;;;;5.90;4.20;;;;;;;;;;83421;276;3027828;-35
2023/12/18 00:15:59;;;;;;;6.20;4.60;;;;;;;;;;82439;276;3027707;-35
2023/12/18 00:18:39;;;;;;;6.10;4.30;;;;;;;;;;82275;272;3031516;-35
2023/12/18 00:21:19;;;;;;;6.50;4.60;;;;;;;;;;82249;272;3032777;-35
2023/12/18 00:24:00;;;;;;;6.30;4.40;;;;;;;;;;82256;276;3028400;-34
2023/12/18 00:26:36;;;;;;;6.00;4.20;;;;;;;;;;82227;272;3027310;-34
2023/12/18 00:29:16;;;;;;;6.70;4.30;;;;;;;;;;82265;272;3030727;-34
2023/12/18 00:31:53;;;;;;;6.40;4.60;;;;;;;;;;82290;272;3032099;-34
2023/12/18 00:34:34;;;;;;;6.50;4.30;;;;;;;;;;82296;272;3028373;-34
2023/12/18 00:37:18;;;;;;;6.40;4.30;;;;;;;;;;82222;272;3027646;-34
2023/12/18 00:39:54;;;;;;;6.30;4.40;;;;;;;;;;83544;273;3030847;-34
2023/12/18 00:42:31;;;;;;;6.50;4.50;;;;;;;;;;83536;272;3031095;-34
2023/12/18 00:45:11;;;;;;;6.20;4.10;;;;;;;;;;82987;272;3028822;-34
2023/12/18 00:47:51;;;;;;;6.40;4.10;;;;;;;;;;82984;272;3033892;-34
2023/12/18 00:50:33;;;;;;;6.30;4.00;;;;;;;;;;82275;272;3030828;-34
2023/12/18 00:53:15;;;;;;;6.80;4.60;;;;;;;;;;82292;272;3031813;-34
2023/12/18 00:55:52;;;;;;;6.20;4.10;;;;;;;;;;82264;272;3028999;-34
2023/12/18 00:58:33;;;;;;;6.20;4.20;;;;;;;;;;82256;272;3027592;-34
2023/12/18 01:01:14;;;;;;;5.60;4.10;;;;;;;;;;82263;272;3030492;-34
2023/12/18 01:03:53;;;;;;;5.60;4.10;;;;;;;;;;82198;272;3031956;-34
2023/12/18 01:06:33;;;;;;;6.20;4.10;;;;;;;;;;82256;272;3028571;-34
2023/12/18 01:09:18;;;;;;;5.70;4.00;;;;;;;;;;82263;276;3028120;-34
2023/12/18 01:12:00;;;;;;;5.90;4.00;;;;;;;;;;82285;272;3030943;-33
2023/12/18 01:14:44;;;;;;;7.10;4.20;;;;;;;;;;82282;272;3031286;-34
2023/12/18 01:17:25;;;;;;;6.20;4.10;;;;;;;;;;82259;272;3028242;-34
2023/12/18 01:20:13;;;;;;;6.50;4.40;;;;;;;;;;82263;272;3027101;-34
2023/12/18 01:22:50;;;;;;;6.50;4.10;;;;;;;;;;83526;273;3031116;-34
2023/12/18 01:25:39;;;;;;;6.30;4.20;;;;;;;;;;83530;272;3031892;-34
2023/12/18 01:28:16;;;;;;;6.70;4.00;;;;;;;;;;83487;273;3028594;-34
2023/12/18 01:30:53;;;;;;;6.50;4.00;;;;;;;;;;83535;272;3027973;-34
2023/12/18 01:33:30;;;;;;;6.10;4.00;;;;;;;;;;83539;272;3031010;-34
2023/12/18 01:36:08;;;;;;;5.70;3.80;;;;;;;;;;82870;272;3031597;-34
2023/12/18 01:38:46;;;;;;;5.80;3.80;;;;;;;;;;83512;276;3034228;-34
2023/12/18 01:41:27;;;;;;;5.80;4.00;;;;;;;;;;82828;272;3027380;-34
2023/12/18 01:44:09;;;;;;;6.00;4.10;;;;;;;;;;82234;272;3030759;-34
2023/12/18 01:46:47;;;;;;;5.70;4.00;;;;;;;;;;82210;272;3031402;-34
2023/12/18 01:49:24;;;;;;;5.40;3.60;;;;;;;;;;82257;272;3028418;-34
2023/12/18 01:52:04;;;;;;;6.40;3.90;;;;;;;;;;82289;272;3027705;-34
2023/12/18 01:54:51;;;;;;;6.00;3.90;;;;;;;;;;82246;272;3030794;-34
2023/12/18 01:57:28;;;;;;;6.00;3.80;;;;;;;;;;82226;272;3031999;-34
2023/12/18 02:00:14;;;;;;;5.70;3.70;;;;;;;;;;82242;272;3028661;-34
2023/12/18 02:02:56;;;;;;;6.10;3.70;;;;;;;;;;83074;276;3027837;-34
2023/12/18 02:05:34;;;;;;;5.80;3.70;;;;;;;;;;83527;276;3030727;-34
2023/12/18 02:08:16;;;;;;;5.40;3.60;;;;;;;;;;82391;272;3031164;-34
2023/12/18 02:10:53;;;;;;;5.80;3.90;;;;;;;;;;83498;273;3028414;-34
2023/12/18 02:13:30;;;;;;;5.80;3.50;;;;;;;;;;83532;273;3028007;-34
2023/12/18 02:16:08;;;;;;;5.40;3.50;;;;;;;;;;83551;276;3030495;-35
2023/12/18 02:18:49;;;;;;;5.80;3.80;;;;;;;;;;82277;273;3031962;-35
2023/12/18 02:21:26;;;;;;;5.90;3.80;;;;;;;;;;83535;276;3028504;-35
2023/12/18 02:24:03;;;;;;;6.00;3.50;;;;;;;;;;83546;276;3027396;-35
2023/12/18 02:26:43;;;;;;;5.60;3.60;;;;;;;;;;83047;272;3031179;-35
2023/12/18 02:29:22;;;;;;;5.50;3.50;;;;;;;;;;82255;272;3031706;-35
2023/12/18 02:32:02;;;;;;;6.00;3.60;;;;;;;;;;82167;272;3029336;-35
2023/12/18 02:34:40;;;;;;;5.60;3.60;;;;;;;;;;82359;273;3027208;-35
2023/12/18 02:37:22;;;;;;;5.80;3.60;;;;;;;;;;82264;273;3030695;-35
2023/12/18 02:40:05;;;;;;;5.60;3.60;;;;;;;;;;82215;274;3032687;-34
2023/12/18 02:42:42;;;;;;;5.30;3.60;;;;;;;;;;83556;276;3028723;-34
2023/12/18 02:45:22;;;;;;;5.20;3.20;;;;;;;;;;82496;273;3027874;-34
2023/12/18 02:47:59;;;;;;;5.70;3.30;;;;;;;;;;83527;276;3030914;-34
2023/12/18 02:50:36;;;;;;;5.50;3.50;;;;;;;;;;83556;276;3038058;-34
2023/12/18 02:53:14;;;;;;;5.50;3.40;;;;;;;;;;83538;273;3027996;-34
2023/12/18 02:55:57;;;;;;;5.60;3.60;;;;;;;;;;83428;276;3027070;-34
2023/12/18 02:58:34;;;;;;;5.60;3.70;;;;;;;;;;82231;272;3031239;-34
2023/12/18 03:01:11;;;;;;;5.90;3.30;;;;;;;;;;82290;272;3031402;-34
2023/12/18 03:03:50;;;;;;;6.00;3.60;;;;;;;;;;82255;272;3028334;-34
2023/12/18 03:06:29;;;;;;;5.00;3.20;;;;;;;;;;82291;272;3028020;-34
2023/12/18 03:09:08;;;;;;;5.40;3.50;;;;;;;;;;82233;272;3031318;-34
2023/12/18 03:11:54;;;;;;;5.60;3.50;;;;;;;;;;82271;272;3031795;-34
2023/12/18 03:14:34;;;;;;;4.90;3.20;;;;;;;;;;82227;272;3028428;-34
2023/12/18 03:17:15;;;;;;;4.90;3.50;;;;;;;;;;82236;272;3027434;-34
2023/12/18 03:19:55;;;;;;;5.20;3.50;;;;;;;;;;82232;272;3031386;-34
2023/12/18 03:22:37;;;;;;;5.40;3.10;;;;;;;;;;82226;272;3032007;-34
2023/12/18 03:25:21;;;;;;;5.40;3.30;;;;;;;;;;82245;272;3029271;-34
2023/12/18 03:28:00;;;;;;;5.20;3.10;;;;;;;;;;82240;272;3028033;-34
2023/12/18 03:30:41;;;;;;;5.00;3.30;;;;;;;;;;82224;272;3030870;-34
2023/12/18 03:33:24;;;;;;;4.70;3.10;;;;;;;;;;82267;272;3032836;-34
2023/12/18 03:36:04;;;;;;;5.20;3.30;;;;;;;;;;82269;272;3027890;-34
2023/12/18 03:38:43;;;;;;;5.00;3.30;;;;;;;;;;82234;272;3027824;-34
2023/12/18 03:41:24;;;;;;;5.10;3.10;;;;;;;;;;82253;272;3030411;-34
2023/12/18 03:44:05;;;;;;;5.40;3.10;;;;;;;;;;82266;273;3031764;-34
2023/12/18 03:46:48;;;;;;;5.20;3.30;;;;;;;;;;82711;272;3028545;-34
2023/12/18 03:49:33;;;;;;;4.70;3.00;;;;;;;;;;82251;272;3028067;-34
2023/12/18 03:52:13;;;;;;;;;;;;;;;;;;82276;272;3030870;-34
2023/12/18 03:54:54;;;;;;;4.70;2.80;;;;;;;;;;82238;272;3032125;-34
2023/12/18 03:57:31;;;;;;;4.40;2.80;;;;;;;;;;82254;272;3028254;-34
2023/12/18 04:00:11;;;;;;;5.10;3.10;;;;;;;;;;82228;272;3027686;-34
2023/12/18 04:02:51;;;;;;;4.90;3.00;;;;;;;;;;82386;272;3030322;-34
2023/12/18 04:05:32;;;;;;;4.80;2.90;;;;;;;;;;82273;272;3031320;-34
2023/12/18 04:08:11;;;;;;;4.90;3.10;;;;;;;;;;82286;269;3028962;-34
2023/12/18 04:10:55;;;;;;;4.80;3.00;;;;;;;;;;82261;272;3028634;-34
2023/12/18 04:13:35;;;;;;;5.00;3.00;;;;;;;;;;82291;272;3031070;-34
2023/12/18 04:16:16;;;;;;;5.00;2.90;;;;;;;;;;82284;276;3031556;-34
2023/12/18 04:18:56;;;;;;;5.10;2.90;;;;;;;;;;82278;272;3028281;-34
2023/12/18 04:21:37;;;;;;;5.00;3.30;;;;;;;;;;82275;272;3027254;-34
2023/12/18 04:24:18;;;;;;;4.90;3.10;;;;;;;;;;82285;272;3030492;-34
2023/12/18 04:26:57;;;;;;;4.70;3.10;;;;;;;;;;82259;269;3031124;-34
2023/12/18 04:29:39;;;;;;;4.70;3.00;;;;;;;;;;82254;272;3028495;-34
2023/12/18 04:32:18;;;;;;;5.80;3.20;;;;;;;;;;82250;272;3027879;-34
2023/12/18 04:34:57;;;;;;;5.20;2.90;;;;;;;;;;82260;272;3030576;-34
2023/12/18 04:37:39;;;;;;;4.70;3.10;;;;;;;;;;82252;272;3032124;-34
2023/12/18 04:40:21;;;;;;;4.80;3.10;;;;;;;;;;82274;273;3027965;-34
2023/12/18 04:42:58;;;;;;;4.70;2.90;;;;;;;;;;82242;272;3034088;-34
2023/12/18 04:45:38;;;;;;;5.10;3.10;;;;;;;;;;82234;272;3030419;-34
2023/12/18 04:48:19;;;;;;;5.40;3.30;;;;;;;;;;82249;272;3031924;-34
2023/12/18 04:51:01;;;;;;;4.90;3.20;;;;;;;;;;82219;273;3028607;-34
2023/12/18 04:53:39;;;;;;;5.90;3.30;;;;;;;;;;82269;273;3027539;-34
2023/12/18 04:56:23;;;;;;;5.40;3.00;;;;;;;;;;82272;272;3030933;-34
2023/12/18 04:59:02;;;;;;;5.20;3.10;;;;;;;;;;82232;272;3031717;-34
2023/12/18 05:01:46;;;;;;;5.00;3.00;;;;;;;;;;82240;274;3028265;-34
2023/12/18 05:04:28;;;;;;;4.60;2.80;;;;;;;;;;82159;274;3027401;-34
2023/12/18 05:07:10;;;;;;;4.60;2.80;;;;;;;;;;82282;272;3030373;-34
2023/12/18 05:09:52;;;;;;;4.60;2.90;;;;;;;;;;82180;276;3031366;-34
2023/12/18 05:12:29;;;;;;;4.50;2.80;;;;;;;;;;82306;272;3029063;-34
2023/12/18 05:15:10;;;;;;;5.10;2.80;;;;;;;;;;82266;272;3027915;-34
2023/12/18 05:17:53;;;;;;;5.50;2.80;;;;;;;;;;83379;272;3030992;-34
2023/12/18 05:20:35;;;;;;;4.40;2.80;;;;;;;;;;82235;276;3031174;-34
2023/12/18 05:23:16;;;;;;;4.60;2.90;;;;;;;;;;82251;272;3027856;-34
2023/12/18 05:25:59;;;;;;;4.70;2.70;;;;;;;;;;82252;272;3027807;-34
2023/12/18 05:28:44;;;;;;;4.90;2.70;;;;;;;;;;82266;272;3030467;-34
2023/12/18 05:31:22;;;;;;;4.70;2.90;;;;;;;;;;82248;272;3031073;-34
2023/12/18 05:34:02;;;;;;;4.40;2.60;;;;;;;;;;82200;273;3033675;-34
2023/12/18 05:36:44;;;;;;;4.50;2.70;;;;;;;;;;82288;272;3027496;-34
2023/12/18 05:39:27;;;;;;;4.30;2.60;;;;;;;;;;82265;272;3030905;-34
2023/12/18 05:42:09;;;;;;;4.40;2.70;;;;;;;;;;82270;272;3032048;-34
2023/12/18 05:44:47;;;;;;;4.60;2.90;;;;;;;;;;83168;276;3028317;-34
2023/12/18 05:47:27;;;;;;;4.30;2.80;;;;;;;;;;82284;272;3027351;-34
2023/12/18 05:50:06;;;;;;;4.60;2.40;;;;;;;;;;82247;273;3030844;-34
2023/12/18 05:52:43;;;;;;;4.00;2.50;;;;;;;;;;83503;276;3031232;-34
2023/12/18 05:55:20;;;;;;;4.60;2.60;;;;;;;;;;83525;272;3027852;-34
2023/12/18 05:57:57;;;;;;;4.70;2.60;;;;;;;;;;83526;276;3027098;-34
2023/12/18 06:00:33;;;;;;;4.70;2.70;;;;;;;;;;83554;276;3030977;-34
2023/12/18 06:03:10;;;;;;;6.40;2.80;;;;;;;;;;83472;273;3031837;-34
2023/12/18 06:05:47;;;;;;;5.00;2.70;;;;;;;;;;83468;269;3027860;-34
2023/12/18 06:08:29;;;;;;;4.80;2.70;;;;;;;;;;82291;272;3027646;-34
2023/12/18 06:11:07;;;;;;;5.10;2.90;;;;;;;;;;82292;272;3030459;-34
2023/12/18 06:13:44;;;;;;;5.40;3.00;;;;;;;;;;83526;276;3030950;-34
2023/12/18 06:16:27;;;;;;;5.00;2.80;;;;;;;;;;82690;272;3028932;-34
2023/12/18 06:19:08;;;;;;;5.00;2.80;;;;;;;;;;82327;273;3028178;-34
2023/12/18 06:21:51;;;;;;;5.20;2.80;;;;;;;;;;82284;272;3031096;-34
2023/12/18 06:24:30;;;;;;;5.00;2.80;;;;;;;;;;82239;272;3031045;-34
2023/12/18 06:27:08;;;;;;;4.70;2.60;;;;;;;;;;82080;272;3027887;-34
2023/12/18 06:29:45;;;;;;;4.70;2.80;;;;;;;;;;83500;276;3027282;-34
2023/12/18 06:32:21;;;;;;;4.70;2.80;;;;;;;;;;83522;273;3031109;-34
2023/12/18 06:34:58;;;;;;;5.30;2.80;;;;;;;;;;83485;276;3031526;-34
2023/12/18 06:37:35;;;;;;;4.50;2.70;;;;;;;;;;83383;272;3028547;-34
2023/12/18 06:40:15;;;;;;;4.90;2.80;;;;;;;;;;82291;272;3027564;-34
2023/12/18 06:42:52;;;;;;;5.10;2.80;;;;;;;;;;83525;276;3030607;-34
2023/12/18 06:45:30;;;;;;;5.90;2.80;;;;;;;;;;82614;276;3038733;-34
2023/12/18 06:48:08;;;;;;;4.50;2.80;;;;;;;;;;83512;276;3028511;-34
2023/12/18 06:50:48;;;;;;;4.10;2.30;;;;;;;;;;82898;272;3027154;31
2023/12/18 06:53:33;;;;;;;5.20;2.60;;;;;;;;;;81960;275;3030657;-34
2023/12/18 06:56:13;;;;;;;4.90;2.90;;;;;;;;;;82081;275;3039164;-33
2023/12/18 06:58:50;;;;;;;4.70;2.90;;;;;;;;;;83435;279;3028699;-34
2023/12/18 07:01:27;;;;;;;4.50;2.80;;;;;;;;;;83454;279;3027529;-34
2023/12/18 07:04:04;;;;;;;4.90;2.80;;;;;;;;;;83434;279;3030579;-34
2023/12/18 07:06:43;;;;;;;4.80;2.70;;;;;;;;;;82222;276;3031368;-34
2023/12/18 07:09:24;;;;;;;4.70;2.80;;;;;;;;;;82067;275;3030963;-34
2023/12/18 07:12:02;;;;;;;4.80;2.70;;;;;;;;;;82072;275;3027257;-33
2023/12/18 07:14:42;;;;;;;4.70;3.10;;;;;;;;;;82038;275;3030572;-34
2023/12/18 07:17:21;;;;;;;5.40;2.70;;;;;;;;;;82880;275;3031354;-34
2023/12/18 07:20:01;;;;;;;4.30;2.80;;;;;;;;;;82053;275;3028676;-34
2023/12/18 07:22:41;;;;;;;6.10;2.90;;;;;;;;;;82100;275;3027435;-34
2023/12/18 07:25:24;;;;;;;4.30;2.80;;;;;;;;;;82046;275;3030743;-34
2023/12/18 07:28:09;;;;;;;5.50;2.70;;;;;;;;;;82071;275;3031897;-34
2023/12/18 07:30:46;;;;;;;4.90;2.70;;;;;;;;;;83465;279;3027931;-33
2023/12/18 07:33:23;;;;;;;4.80;2.80;;;;;;;;;;83140;279;3028822;-33
2023/12/18 07:36:06;;;;;;;4.60;2.80;;;;;;;;;;82101;275;3030525;-32
2023/12/18 07:38:44;;;;;;;6.00;2.90;;;;;;;;;;82811;275;3031616;-34
2023/12/18 07:41:30;;;;;;;4.60;2.70;;;;;;;;;;82056;275;3028509;-33
2023/12/18 07:44:14;;;;;;;5.00;2.80;;;;;;;;;;82127;276;3027441;-33
2023/12/18 07:46:54;;;;;;;5.20;3.00;;;;;;;;;;82060;275;3030703;-33
2023/12/18 07:49:39;;;;;;;4.60;2.70;;;;;;;;;;82072;275;3032100;-32
2023/12/18 07:52:22;;;;;;;4.50;2.70;;;;;;;;;;82080;275;3027993;-34
2023/12/18 07:55:07;;;;;;;4.90;3.00;;;;;;;;;;82051;275;3027300;-34
2023/12/18 07:57:46;;;;;;;4.90;2.70;;;;;;;;;;83020;279;3031300;-35
2023/12/18 08:00:30;;;;;;;4.40;2.50;;;;;;;;;;82092;272;3033251;-34
2023/12/18 08:03:17;;;;;;;4.80;2.50;;;;;;;;;;82054;275;3028921;-33
2023/12/18 08:06:01;;;;;;;5.90;3.10;;;;;;;;;;82068;276;3027780;-34
2023/12/18 08:08:43;;;;;;;4.30;2.60;;;;;;;;;;82492;275;3030557;-34
2023/12/18 08:11:25;;;;;;;;;;;;;;;;;;82055;279;3031505;-34
2023/12/18 08:14:10;;;;;;;5.30;2.80;;;;;;;;;;82129;272;3028635;-33
2023/12/18 08:16:49;;;;;;;6.50;3.10;;;;;;;;;;82874;275;3027176;-34
2023/12/18 08:19:27;;;;;;;4.60;2.80;;;;;;;;;;82082;275;3032167;-33
2023/12/18 08:22:07;;;;;;;4.60;2.70;;;;;;;;;;82063;275;3031921;-34
2023/12/18 08:24:44;;;;;;;4.70;2.80;;;;;;;;;;83426;275;3028717;-33
2023/12/18 08:27:28;;;;;;;4.70;2.80;;;;;;;;;;82669;275;3028329;-34
2023/12/18 08:30:11;;;;;;;4.90;2.70;;;;;;;;;;82066;275;3030647;-33
2023/12/18 08:32:48;;;;;;;4.80;2.90;;;;;;;;;;82498;275;3031864;-34
2023/12/18 08:35:28;;;;;;;4.30;2.40;;;;;;;;;;82121;275;3028460;-34
2023/12/18 08:38:08;;;;;;;5.40;3.20;;;;;;;;;;82086;276;3034388;-33
2023/12/18 08:40:45;;;;;;;5.10;3.20;;;;;;;;;;83444;279;3031072;-33
2023/12/18 08:43:22;;;;;;;5.70;3.70;;;;;;;;;;83466;279;3031099;-34
2023/12/18 08:46:01;;;;;;;5.80;3.60;;;;;;;;;;82353;275;3028373;-34
2023/12/18 08:48:45;;;;;;;5.40;3.30;;;;;;;;;;82016;275;3034303;-34
2023/12/18 08:51:24;;;;;;;5.50;3.30;;;;;;;;;;82048;275;3031047;-34
2023/12/18 08:54:05;;;;;;;5.30;3.20;;;;;;;;;;82071;275;3031287;-34
2023/12/18 08:56:48;;;;;;;6.10;3.40;;;;;;;;;;82031;275;3028053;-34
2023/12/18 08:59:31;;;;;;;5.60;3.30;;;;;;;;;;82082;275;3027183;-33
2023/12/18 09:02:10;;;;;;;5.40;3.30;;;;;;;;;;82027;275;3031479;-33
2023/12/18 09:04:54;;;;;;;5.10;3.30;;;;;;;;;;82058;275;3031593;-34
2023/12/18 09:07:32;;;;;;;4.70;3.10;;;;;;;;;;82040;275;3028065;-33
2023/12/18 09:10:11;;;;;;;5.10;3.30;;;;;;;;;;82086;275;3028053;-33
2023/12/18 09:12:49;;;;;;;5.60;3.30;;;;;;;;;;82417;275;3031411;-34
2023/12/18 09:15:36;;;;;;;5.20;3.30;;;;;;;;;;82075;275;3031648;-34
2023/12/18 09:18:14;;;;;;;5.60;3.40;;;;;;;;;;82007;277;3028461;-34
2023/12/18 09:20:52;;;;;;;5.20;3.30;;;;;;;;;;83228;279;3027580;-34
2023/12/18 09:23:35;;;;;;;5.50;3.20;;;;;;;;;;82048;275;3031199;-34
2023/12/18 09:26:20;;;;;;;6.50;3.30;;;;;;;;;;82045;275;3031406;-33
2023/12/18 09:29:00;;;;;;;5.60;3.50;;;;;;;;;;81971;275;3027934;-33
2023/12/18 09:31:40;;;;;;;5.50;3.40;;;;;;;;;;82085;275;3027806;-33
2023/12/18 09:34:26;;;;;;;8.50;3.70;;;;;;;;;;82059;275;3030863;-32
2023/12/18 09:37:09;;;;;;;6.30;3.60;;;;;;;;;;82028;275;3031910;-33
2023/12/18 09:39:47;;;;;;;5.80;3.40;;;;;;;;;;81982;275;3036492;-32
2023/12/18 09:42:25;;;;;;;5.70;3.40;;;;;;;;;;82062;275;3027778;-34
2023/12/18 09:45:07;;;;;;;5.70;3.20;;;;;;;;;;82047;279;3031559;-33
2023/12/18 09:47:44;;;;;;;6.20;3.00;;;;;;;;;;83415;279;3031543;-34
2023/12/18 09:50:21;;;;;;;5.30;3.10;;;;;;;;;;83446;279;3028726;-34
2023/12/18 09:53:13;;;;;;;5.90;3.20;;;;;;;;;;83290;275;3027087;-34
2023/12/18 09:55:54;;;;;;;5.60;3.20;;;;;;;;;;81996;277;3031048;-34
2023/12/18 09:58:33;;;;;;;5.00;3.10;;;;;;;;;;82063;275;3031540;-34
2023/12/18 10:01:14;;;;;;;5.50;3.10;;;;;;;;;;82097;275;3028017;-34
2023/12/18 10:03:55;;;;;;;5.70;3.40;;;;;;;;;;83076;275;3027800;-35
2023/12/18 10:06:32;;;;;;;5.20;3.30;;;;;;;;;;82060;276;3030923;-35
2023/12/18 10:09:21;;;;;;;5.20;3.30;;;;;;;;;;82078;275;3032075;-35
2023/12/18 10:12:00;;;;;;;5.40;3.50;;;;;;;;;;82100;276;3028795;-35
2023/12/18 10:14:41;;;;;;;5.20;3.00;;;;;;;;;;82089;272;3027073;-34
2023/12/18 10:17:22;;;;;;;4.90;3.10;;;;;;;;;;82054;276;3030653;-34
2023/12/18 10:20:03;;;;;;;5.20;3.30;;;;;;;;;;82073;276;3031235;-34
2023/12/18 10:22:47;;;;;;;5.00;3.20;;;;;;;;;;82064;276;3028671;-34
2023/12/18 10:25:25;;;;;;;;;;;;;;;;;;82092;275;3027113;-34
2023/12/18 10:28:03;;;;;;;5.20;3.40;;;;;;;;;;82078;275;3032320;-34
2023/12/18 10:30:47;;;;;;;5.50;3.50;;;;;;;;;;82056;276;3032065;-34
2023/12/18 10:33:29;;;;;;;5.70;3.40;;;;;;;;;;82416;275;3028296;-34
2023/12/18 10:36:11;;;;;;;6.10;3.30;;;;;;;;;;82031;276;3027915;-34
2023/12/18 10:38:54;;;;;;;5.80;3.30;;;;;;;;;;82567;276;3030923;-34
2023/12/18 10:41:42;;;;;;;6.00;3.40;;;;;;;;;;82111;279;3031581;-34
2023/12/18 10:44:25;;;;;;;4.90;3.10;;;;;;;;;;82053;275;3028601;-34
2023/12/18 10:47:08;;;;;;;5.60;3.10;;;;;;;;;;82071;276;3027253;-34
2023/12/18 10:49:52;;;;;;;5.90;3.40;;;;;;;;;;82973;275;3030553;-34
2023/12/18 10:52:33;;;;;;;5.10;3.20;;;;;;;;;;82495;275;3032737;-34
2023/12/18 10:55:23;;;;;;;5.10;3.30;;;;;;;;;;82064;276;3028186;-34
2023/12/18 10:58:06;;;;;;;5.20;3.30;;;;;;;;;;82061;276;3028054;-33
2023/12/18 11:00:50;;;;;;;5.20;3.20;;;;;;;;;;82042;275;3033196;-33
2023/12/18 11:03:29;;;;;;;5.80;3.20;;;;;;;;;;82062;276;3031792;-34
2023/12/18 11:06:07;;;;;;;13.30;7.50;;;;;;;;;;82581;276;3028052;-33
2023/12/18 11:08:51;;;;;;;12.40;7.30;;;;;;;;;;82107;275;3028015;-33
2023/12/18 11:11:30;;;;;;;9.80;5.80;;;;;;;;;;81965;276;3030533;-31
2023/12/18 11:14:24;;;;;;;13.40;7.30;;;;;;;;;;83167;279;3031854;-34
2023/12/18 11:17:17;;;;;;;12.50;7.20;;;;;;;;;;82184;272;3028583;-37
2023/12/18 11:20:05;;;;;;;12.10;6.20;;;;;;;;;;83410;275;3027897;-37
2023/12/18 11:22:48;;;;;;;13.80;7.50;;;;;;;;;;83436;279;3030644;-36
2023/12/18 11:25:34;;;;;;;13.50;7.20;;;;;;;;;;83164;275;3031246;-35
2023/12/18 11:28:14;;;;;;;12.50;6.40;;;;;;;;;;82602;275;3027848;-34
2023/12/18 11:30:51;;;;;;;12.00;6.40;;;;;;;;;;83390;279;3027355;-34
2023/12/18 11:33:29;;;;;;;11.20;6.40;;;;;;;;;;83447;275;3030562;-35
2023/12/18 11:36:21;;;;;;;11.20;6.00;;;;;;;;;;82458;275;3031922;-34
2023/12/18 11:39:03;;;;;;;9.90;5.70;;;;;;;;;;82108;275;3029126;-34
2023/12/18 11:41:44;;;;;;;9.60;5.70;;;;;;;;;;82035;275;3027546;-33
2023/12/18 11:44:26;;;;;;;9.80;5.80;;;;;;;;;;82314;276;3031161;-34
2023/12/18 11:47:07;;;;;;;10.50;5.50;;;;;;;;;;81952;275;3032899;-35
2023/12/18 11:49:44;;;;;;;9.50;5.20;;;;;;;;;;83429;275;3027791;-34
2023/12/18 11:52:25;;;;;;;9.20;5.00;;;;;;;;;;83433;279;3027951;-34
2023/12/18 11:55:05;;;;;;;8.90;5.10;;;;;;;;;;82687;275;3030421;-35
2023/12/18 11:57:45;;;;;;;8.50;5.10;;;;;;;;;;83418;279;3032656;-34
2023/12/18 12:00:22;;;;;;;7.30;4.60;;;;;;;;;;83415;279;3028204;-35
2023/12/18 12:03:00;;;;;;;8.10;4.80;;;;;;;;;;83479;275;3034708;-35
2023/12/18 12:05:39;;;;;;;7.80;4.80;;;;;;;;;;83002;275;3030706;-35
2023/12/18 12:08:22;;;;;;;7.50;4.80;;;;;;;;;;82056;275;3031611;-34
2023/12/18 12:11:03;;;;;;;7.80;4.40;;;;;;;;;;82052;275;3028706;-34
2023/12/18 12:13:44;;;;;;;7.40;4.50;;;;;;;;;;82062;275;3029380;-34
2023/12/18 12:16:26;;;;;;;6.80;4.40;;;;;;;;;;82027;275;3031606;-34
2023/12/18 12:19:07;;;;;;;6.30;3.80;;;;;;;;;;82017;275;3033633;-34
2023/12/18 12:21:47;;;;;;;6.40;3.90;;;;;;;;;;82000;275;3028011;-34
2023/12/18 12:24:24;;;;;;;6.00;4.00;;;;;;;;;;82065;279;3027585;-35
2023/12/18 12:27:04;;;;;;;6.30;3.90;;;;;;;;;;82047;275;3031109;-34
2023/12/18 12:29:40;;;;;;;6.20;3.70;;;;;;;;;;83447;275;3031423;-34
2023/12/18 12:32:20;;;;;;;6.10;4.10;;;;;;;;;;83394;279;3028688;-35
2023/12/18 12:34:58;;;;;;;5.50;3.50;;;;;;;;;;83453;279;3027777;-34
2023/12/18 12:37:35;;;;;;;5.90;3.60;;;;;;;;;;83372;279;3031369;-35
2023/12/18 12:40:13;;;;;;;7.10;4.10;;;;;;;;;;83430;279;3031633;-34
2023/12/18 12:42:51;;;;;;;6.10;3.90;;;;;;;;;;83419;275;3028095;-34
2023/12/18 12:45:33;;;;;;;6.90;4.10;;;;;;;;;;82701;279;3027889;-34
2023/12/18 12:48:12;;;;;;;6.60;3.80;;;;;;;;;;82026;275;3030746;-33
2023/12/18 12:50:50;;;;;;;5.90;3.80;;;;;;;;;;83361;275;3031391;-33
2023/12/18 12:53:27;;;;;;;6.10;3.50;;;;;;;;;;83415;275;3028600;-34
2023/12/18 12:56:09;;;;;;;6.30;3.70;;;;;;;;;;82665;275;3028129;-35
2023/12/18 12:58:51;;;;;;;6.60;3.80;;;;;;;;;;82041;275;3031792;-34
2023/12/18 13:01:36;;;;;;;5.70;3.80;;;;;;;;;;82012;275;3031619;-34
2023/12/18 13:04:19;;;;;;;6.40;3.90;;;;;;;;;;82008;275;3034231;-33
2023/12/18 13:07:05;;;;;;;5.80;3.60;;;;;;;;;;82034;275;3028588;-37
2023/12/18 13:09:47;;;;;;;5.80;3.80;;;;;;;;;;82092;275;3031813;-37
2023/12/18 13:12:25;;;;;;;6.80;4.00;;;;;;;;;;82044;275;3031933;-37
2023/12/18 13:15:05;;;;;;;6.20;3.70;;;;;;;;;;82051;275;3028713;-35
2023/12/18 13:17:51;;;;;;;6.50;4.00;;;;;;;;;;82554;279;3027161;-39
2023/12/18 13:20:33;;;;;;;5.90;3.80;;;;;;;;;;82050;275;3030587;-41
2023/12/18 13:23:15;;;;;;;5.70;3.50;;;;;;;;;;82004;275;3031126;-35
2023/12/18 13:25:55;;;;;;;5.50;3.70;;;;;;;;;;82069;275;3028740;-36
2023/12/18 13:28:34;;;;;;;6.70;3.70;;;;;;;;;;81990;277;3027145;-36
2023/12/18 13:31:14;;;;;;;5.60;3.60;;;;;;;;;;82029;275;3030647;-38
2023/12/18 13:33:55;;;;;;;5.20;3.30;;;;;;;;;;82004;275;3031263;-35
2023/12/18 13:36:40;;;;;;;6.10;3.60;;;;;;;;;;82086;275;3028455;-37
2023/12/18 13:39:19;;;;;;;5.50;3.90;;;;;;;;;;82029;275;3027804;-37
2023/12/18 13:42:02;;;;;;;6.10;3.60;;;;;;;;;;82050;276;3030730;-37
2023/12/18 13:44:39;;;;;;;6.60;4.00;;;;;;;;;;83422;279;3031701;-36
2023/12/18 13:47:19;;;;;;;5.60;3.80;;;;;;;;;;82773;275;3028505;-36
2023/12/18 13:50:02;;;;;;;5.40;3.90;;;;;;;;;;82050;275;3027857;-36
2023/12/18 13:52:46;;;;;;;6.30;4.10;;;;;;;;;;82318;272;3031551;-37
2023/12/18 13:55:28;;;;;;;5.70;4.00;;;;;;;;;;82007;275;3039184;-37
2023/12/18 13:58:16;;;;;;;5.70;4.10;;;;;;;;;;81992;275;3028775;-38
2023/12/18 14:01:02;;;;;;;5.60;3.60;;;;;;;;;;82313;275;3027282;-34
2023/12/18 14:03:45;;;;;;;5.60;3.90;;;;;;;;;;82031;275;3031245;-31
2023/12/18 14:06:30;;;;;;;5.70;3.90;;;;;;;;;;82064;275;3031438;-31
2023/12/18 14:09:09;;;;;;;5.60;3.80;;;;;;;;;;82053;275;3028366;-33
2023/12/18 14:11:47;;;;;;;6.90;3.70;;;;;;;;;;81976;277;3027638;-32
2023/12/18 14:14:26;;;;;;;6.30;4.10;;;;;;;;;;82026;275;3031509;-31
2023/12/18 14:17:05;;;;;;;5.80;3.60;;;;;;;;;;82050;275;3031517;-33
2023/12/18 14:19:44;;;;;;;6.30;3.80;;;;;;;;;;82054;276;3028589;-33
2023/12/18 14:22:27;;;;;;;5.90;3.70;;;;;;;;;;82081;275;3028025;-33
2023/12/18 14:25:10;;;;;;;5.90;3.60;;;;;;;;;;82027;275;3031360;-32
2023/12/18 14:27:49;;;;;;;5.80;3.90;;;;;;;;;;83227;277;3032000;-34
2023/12/18 14:30:28;;;;;;;5.20;3.40;;;;;;;;;;82069;275;3028676;-32
2023/12/18 14:33:15;;;;;;;6.00;3.80;;;;;;;;;;82062;275;3027933;-32
2023/12/18 14:35:55;;;;;;;5.50;3.70;;;;;;;;;;82028;276;3030570;-30
2023/12/18 14:38:37;;;;;;;5.30;3.70;;;;;;;;;;82059;275;3031664;-32
2023/12/18 14:41:19;;;;;;;5.80;3.30;;;;;;;;;;82032;275;3028694;-32
2023/12/18 14:43:59;;;;;;;6.00;3.60;;;;;;;;;;82228;277;3027320;-31
2023/12/18 14:46:40;;;;;;;5.00;3.10;;;;;;;;;;82048;275;3037224;-31
2023/12/18 14:49:21;;;;;;;5.30;3.40;;;;;;;;;;82059;275;3032788;-32
2023/12/18 14:51:58;;;;;;;5.80;3.70;;;;;;;;;;83447;279;3028077;-31
2023/12/18 14:54:37;;;;;;;5.30;3.60;;;;;;;;;;82046;275;3027360;-31
2023/12/18 14:57:20;;;;;;;5.50;3.50;;;;;;;;;;82019;275;3030711;-31
2023/12/18 14:59:59;;;;;;;5.30;3.60;;;;;;;;;;81948;277;3031641;-37
2023/12/18 15:02:45;;;;;;;5.90;3.80;;;;;;;;;;82029;275;3028062;-36
2023/12/18 15:05:24;;;;;;;6.00;3.60;;;;;;;;;;82054;275;3027386;-33
2023/12/18 15:08:05;;;;;;;5.50;3.80;;;;;;;;;;82085;275;3030854;-33
2023/12/18 15:10:42;;;;;;;6.30;4.00;;;;;;;;;;83462;275;3031255;-34
2023/12/18 15:13:19;;;;;;;6.70;3.70;;;;;;;;;;83447;275;3027938;-33
2023/12/18 15:16:06;;;;;;;5.40;3.70;;;;;;;;;;82647;277;3027244;-34
2023/12/18 15:18:46;;;;;;;5.50;3.50;;;;;;;;;;82057;275;3031168;-34
2023/12/18 15:21:29;;;;;;;6.00;3.80;;;;;;;;;;82051;275;3031732;-33
2023/12/18 15:24:09;;;;;;;5.40;3.30;;;;;;;;;;82051;277;3027972;-32
2023/12/18 15:26:53;;;;;;;5.90;3.60;;;;;;;;;;82688;275;3027209;-35
2023/12/18 15:29:33;;;;;;;5.20;3.50;;;;;;;;;;82101;275;3031141;-32
2023/12/18 15:32:11;;;;;;;5.90;3.80;;;;;;;;;;83436;279;3031406;-32
2023/12/18 15:34:48;;;;;;;5.20;3.50;;;;;;;;;;83445;279;3028276;-32
2023/12/18 15:37:25;;;;;;;5.50;3.70;;;;;;;;;;83415;275;3027950;-33
2023/12/18 15:40:04;;;;;;;5.50;3.80;;;;;;;;;;82372;275;3030352;-33
2023/12/18 15:42:42;;;;;;;6.00;3.80;;;;;;;;;;83441;276;3031346;-39
2023/12/18 15:45:25;;;;;;;6.00;3.90;;;;;;;;;;83168;279;3028185;-39
2023/12/18 15:48:09;;;;;;;5.20;3.70;;;;;;;;;;82031;275;3033692;-39